»·PEaware :: WAT306 KBUR-KBOI

WAT306 :: KBUR-KBOI

FLIGHT INFORMATION

Flight Status: Arrived
Operator:
Walker Air Transport
More flights by this operator :: More flights under this callsign
Pilot: Ethan S. (29221)
Aircraft: SOCATA TBM-900
(TBM9)
More flights by this aircraft type
Origin: KBUR Bob Hope-Burbank
United States
Destination: KBOI Boise Air Terminal/Gowen
United States
More flights between these airports :: More routes between these airports
Route: VNY3 GMN RYANN REO
File this flight plan on PilotEdge
Remarks:
Altitude:
(Current/Filed)
30,000ft
Speed:
(Current/Filed)
320kts
Departed: 06-Nov-20 10:41 AM
Arrived: 06-Nov-20 12:34 PM
Distance/Time
Traveled:
571nm/1:53
Distance/Time
To Go:
Arrived

Flight Plot

Page will automatically refresh every two minutes.

Flight plan parsing failed; only flown route is shown


Map Options




Map Legend


Flown Route
Filed Route
Departure Airport
Arrival Airport
Navaid (VOR, NDB)
Fix

Horizontal Profiles

Position Reports

Time Latitude Longitude Heading Altitude Ground
Speed
06-Nov-20 10:27 34.200138 -118.359459 346 721ft 0kts
06-Nov-20 10:28 34.200138 -118.359459 346 721ft 0kts
06-Nov-20 10:29 34.200138 -118.359459 346 721ft 0kts
06-Nov-20 10:30 34.200138 -118.359459 346 721ft 0kts
06-Nov-20 10:31 34.200138 -118.359459 346 721ft 0kts
06-Nov-20 10:32 34.200138 -118.359459 346 721ft 0kts
06-Nov-20 10:33 34.200138 -118.359459 346 721ft 0kts
06-Nov-20 10:34 34.200138 -118.359459 346 721ft 0kts
06-Nov-20 10:35 34.200138 -118.359459 346 721ft 0kts
06-Nov-20 10:36 34.201664 -118.359282 74 727ft 8kts
06-Nov-20 10:37 34.204452 -118.359440 347 736ft 13kts
06-Nov-20 10:38 34.208434 -118.360528 347 752ft 14kts
06-Nov-20 10:39 34.211909 -118.361361 31 768ft 5kts
06-Nov-20 10:40 34.207636 -118.359178 167 747ft 87kts
06-Nov-20 10:41 34.177784 -118.368592 225 2297ft 134kts
06-Nov-20 10:42 34.153899 -118.403221 225 4024ft 145kts
06-Nov-20 10:43 34.123637 -118.446019 225 5633ft 142kts
06-Nov-20 10:44 34.133785 -118.484491 328 7870ft 165kts
06-Nov-20 10:45 34.174693 -118.509711 327 9894ft 163kts
06-Nov-20 10:46 34.215438 -118.534291 324 12271ft 158kts
06-Nov-20 10:47 34.255962 -118.558869 324 14436ft 166kts
06-Nov-20 10:48 34.297885 -118.584184 324 16718ft 168kts
06-Nov-20 10:49 34.340739 -118.610105 323 18675ft 173kts
06-Nov-20 10:50 34.385034 -118.636917 323 20470ft 178kts
06-Nov-20 10:51 34.430264 -118.664349 323 22227ft 186kts
06-Nov-20 10:52 34.476862 -118.692589 323 24613ft 188kts
06-Nov-20 10:53 34.524574 -118.721579 322 26844ft 192kts
06-Nov-20 10:54 34.575644 -118.747806 327 28804ft 200kts
06-Nov-20 10:55 34.630582 -118.775198 328 29916ft 242kts
06-Nov-20 10:56 34.701564 -118.810409 330 29926ft 290kts
06-Nov-20 10:57 34.780061 -118.849439 330 29917ft 309kts
06-Nov-20 10:58 34.869273 -118.867217 348 29911ft 325kts
06-Nov-20 10:59 34.961198 -118.875385 348 29907ft 327kts
06-Nov-20 11:00 35.054310 -118.883726 348 29905ft 333kts
06-Nov-20 11:01 35.149175 -118.892249 348 29870ft 337kts
06-Nov-20 11:02 35.244185 -118.900802 348 29853ft 338kts
06-Nov-20 11:03 35.339944 -118.909428 347 29852ft 338kts
06-Nov-20 11:04 35.435248 -118.918049 347 29853ft 339kts
06-Nov-20 11:05 35.530982 -118.926719 347 29854ft 340kts
06-Nov-20 11:06 35.626926 -118.935444 347 29855ft 340kts
06-Nov-20 11:07 35.721805 -118.944077 347 29856ft 341kts
06-Nov-20 11:08 35.816971 -118.952770 347 29856ft 342kts
06-Nov-20 11:09 35.913302 -118.961573 347 29857ft 343kts
06-Nov-20 11:10 36.009630 -118.970410 347 29859ft 344kts
06-Nov-20 11:11 36.106615 -118.979326 347 29856ft 345kts
06-Nov-20 11:12 36.204460 -118.988336 347 29849ft 344kts
06-Nov-20 11:13 36.301784 -118.997328 347 29851ft 344kts
06-Nov-20 11:14 36.399313 -119.006375 347 29852ft 345kts
06-Nov-20 11:16 36.497108 -119.015446 347 29853ft 346kts
06-Nov-20 11:17 36.595299 -119.024580 346 29855ft 346kts
06-Nov-20 11:18 36.693476 -119.033754 346 29854ft 347kts
06-Nov-20 11:19 36.791795 -119.042960 346 29856ft 348kts
06-Nov-20 11:20 36.890286 -119.052188 346 29865ft 348kts
06-Nov-20 11:21 36.988853 -119.061463 346 29871ft 349kts
06-Nov-20 11:22 37.089001 -119.070911 346 29836ft 358kts
06-Nov-20 11:23 37.192041 -119.080670 346 29826ft 366kts
06-Nov-20 11:24 37.295896 -119.090508 346 29821ft 370kts
06-Nov-20 11:25 37.400802 -119.100477 346 29827ft 371kts
06-Nov-20 11:26 37.505524 -119.110459 346 29824ft 372kts
06-Nov-20 11:27 37.610233 -119.120476 346 29826ft 373kts
06-Nov-20 11:28 37.715199 -119.130544 346 29828ft 373kts
06-Nov-20 11:29 37.820424 -119.140646 346 29831ft 373kts
06-Nov-20 11:29 37.907979 -119.149113 347 29832ft 374kts
06-Nov-20 11:31 38.030692 -119.160978 347 29835ft 374kts
06-Nov-20 11:31 38.118688 -119.169516 346 29790ft 375kts
06-Nov-20 11:33 38.241718 -119.181473 347 29669ft 375kts
06-Nov-20 11:33 38.329909 -119.190072 347 29655ft 373kts
06-Nov-20 11:35 38.452723 -119.202083 347 29665ft 372kts
06-Nov-20 11:35 38.540511 -119.210695 347 29674ft 372kts
06-Nov-20 11:36 38.645591 -119.221022 346 29681ft 372kts
06-Nov-20 11:37 38.750992 -119.231418 346 29684ft 373kts
06-Nov-20 11:38 38.856430 -119.241847 346 29687ft 373kts
06-Nov-20 11:40 38.980419 -119.254229 348 29690ft 374kts
06-Nov-20 11:40 39.069423 -119.263068 348 29693ft 375kts
06-Nov-20 11:41 39.175742 -119.273659 348 29681ft 374kts
06-Nov-20 11:42 39.282350 -119.262114 18 29686ft 385kts
06-Nov-20 11:43 39.386172 -119.218529 15 29683ft 384kts
06-Nov-20 11:44 39.492355 -119.175945 15 29665ft 385kts
06-Nov-20 11:45 39.598371 -119.133257 15 29664ft 386kts
06-Nov-20 11:46 39.704829 -119.090268 15 29663ft 386kts
06-Nov-20 11:47 39.810563 -119.047412 14 29665ft 386kts
06-Nov-20 11:48 39.915209 -119.004879 15 29668ft 386kts
06-Nov-20 11:49 40.019939 -118.962163 14 29670ft 386kts
06-Nov-20 11:50 40.125263 -118.919062 14 29654ft 386kts
06-Nov-20 11:51 40.229492 -118.876282 14 29657ft 383kts
06-Nov-20 11:52 40.333836 -118.833319 14 29659ft 381kts
06-Nov-20 11:53 40.437613 -118.790446 14 29661ft 381kts
06-Nov-20 11:54 40.541130 -118.747553 14 29663ft 381kts
06-Nov-20 11:55 40.644765 -118.704467 14 29665ft 381kts
06-Nov-20 11:56 40.748603 -118.661151 14 29667ft 381kts
06-Nov-20 11:57 40.851958 -118.617889 14 29671ft 382kts
06-Nov-20 11:58 40.955880 -118.574253 14 29678ft 382kts
06-Nov-20 11:59 41.060473 -118.530194 14 29682ft 385kts
06-Nov-20 12:00 41.165699 -118.485712 14 29669ft 390kts
06-Nov-20 12:01 41.272622 -118.440369 14 29670ft 391kts
06-Nov-20 12:02 41.382397 -118.393624 14 29672ft 392kts
06-Nov-20 12:03 41.491896 -118.346869 15 29672ft 393kts
06-Nov-20 12:04 41.602042 -118.299647 15 29670ft 393kts
06-Nov-20 12:05 41.710583 -118.252958 15 29645ft 394kts
06-Nov-20 12:06 41.817432 -118.206836 15 29629ft 394kts
06-Nov-20 12:07 41.924272 -118.160536 15 29631ft 394kts
06-Nov-20 12:08 42.032170 -118.113644 15 29634ft 394kts
06-Nov-20 12:09 42.139165 -118.066958 15 29616ft 394kts
06-Nov-20 12:10 42.245689 -118.020302 15 29619ft 392kts
06-Nov-20 12:11 42.351067 -117.974001 15 29621ft 392kts
06-Nov-20 12:12 42.456385 -117.927565 15 29624ft 392kts
06-Nov-20 12:13 42.563590 -117.879296 17 28369ft 399kts
06-Nov-20 12:14 42.647596 -117.784960 68 26781ft 380kts
06-Nov-20 12:15 42.712361 -117.665835 54 25288ft 382kts
06-Nov-20 12:16 42.781795 -117.550849 53 23775ft 377kts
06-Nov-20 12:17 42.850494 -117.436649 53 22267ft 372kts
06-Nov-20 12:18 42.917636 -117.324688 54 20771ft 367kts
06-Nov-20 12:19 42.983362 -117.214567 55 19256ft 358kts
06-Nov-20 12:20 43.047712 -117.106352 56 17737ft 347kts
06-Nov-20 12:21 43.109502 -117.001961 55 16468ft 336kts
06-Nov-20 12:22 43.170403 -116.898827 53 14890ft 335kts
06-Nov-20 12:23 43.230182 -116.797314 53 13327ft 327kts
06-Nov-20 12:24 43.293698 -116.712355 32 12411ft 315kts
06-Nov-20 12:25 43.369306 -116.644568 32 10876ft 317kts
06-Nov-20 12:26 43.439990 -116.577526 32 9331ft 278kts
06-Nov-20 12:27 43.501291 -116.517061 32 7786ft 257kts
06-Nov-20 12:28 43.559143 -116.459675 32 6254ft 246kts
06-Nov-20 12:29 43.615941 -116.404624 33 4712ft 240kts
06-Nov-20 12:30 43.614623 -116.340546 138 4515ft 178kts
06-Nov-20 12:31 43.589449 -116.293623 112 3765ft 125kts
06-Nov-20 12:32 43.576523 -116.255419 114 3151ft 94kts
06-Nov-20 12:33 43.567408 -116.228719 115 2838ft 29kts
06-Nov-20 12:34 43.567328 -116.224924 295 2843ft 8kts
06-Nov-20 12:35 43.569342 -116.225733 16 2840ft 8kts
06-Nov-20 12:36 43.570478 -116.225955 91 2838ft 0kts
06-Nov-20 12:37 43.570478 -116.225955 91 2838ft 0kts
06-Nov-20 12:38 43.570478 -116.225955 91 2838ft 0kts
06-Nov-20 12:39 43.570478 -116.225955 91 2838ft 0kts
06-Nov-20 12:40 43.570478 -116.225955 91 2838ft 0kts
06-Nov-20 12:41 43.570478 -116.225955 91 2838ft 0kts
06-Nov-20 12:42 43.570478 -116.225955 91 2838ft 0kts
06-Nov-20 12:43 43.570478 -116.225955 91 2838ft 0kts
06-Nov-20 12:44 43.570478 -116.225955 91 2838ft 0kts
06-Nov-20 12:45 43.570478 -116.225955 91 2838ft 0kts
06-Nov-20 12:46 43.570478 -116.225955 91 2838ft 0kts
06-Nov-20 12:47 43.570478 -116.225955 91 2838ft 0kts
06-Nov-20 12:48 43.570478 -116.225955 91 2838ft 0kts

Navigation Log

Ident Type
Flight plan parsing failed, navigation log unavailable